sensor_id;sensor_type;location;lat;lon;timestamp;pressure;altitude;pressure_sealevel;temperature;humidity
41234;BME280;26968;42.686;23.352;2023-01-30T00:00:59;95450.47;;;-1.70;78.07
41234;BME280;26968;42.686;23.352;2023-01-30T00:03:25;95497.03;;;-1.47;77.69
41234;BME280;26968;42.686;23.352;2023-01-30T00:05:50;95426.34;;;-1.91;78.04
41234;BME280;26968;42.686;23.352;2023-01-30T00:08:16;95375.44;;;-2.14;78.32
41234;BME280;26968;42.686;23.352;2023-01-30T00:10:42;95399.28;;;-1.97;78.65
41234;BME280;26968;42.686;23.352;2023-01-30T00:13:08;95492.00;;;-1.48;78.04
41234;BME280;26968;42.686;23.352;2023-01-30T00:15:33;95463.03;;;-1.73;78.35
41234;BME280;26968;42.686;23.352;2023-01-30T00:17:59;95482.97;;;-1.52;78.63
41234;BME280;26968;42.686;23.352;2023-01-30T00:20:24;95394.81;;;-2.10;77.86
41234;BME280;26968;42.686;23.352;2023-01-30T00:22:50;95459.88;;;-1.69;78.68
41234;BME280;26968;42.686;23.352;2023-01-30T00:25:15;95477.88;;;-1.67;78.89
41234;BME280;26968;42.686;23.352;2023-01-30T00:27:40;95499.16;;;-1.57;79.40
41234;BME280;26968;42.686;23.352;2023-01-30T00:30:06;95490.19;;;-1.54;79.64
41234;BME280;26968;42.686;23.352;2023-01-30T00:32:32;95489.09;;;-1.67;79.51
41234;BME280;26968;42.686;23.352;2023-01-30T00:34:58;95451.53;;;-1.92;79.58
41234;BME280;26968;42.686;23.352;2023-01-30T00:37:23;95477.66;;;-1.72;79.37
41234;BME280;26968;42.686;23.352;2023-01-30T00:39:49;95489.84;;;-1.73;79.63
41234;BME280;26968;42.686;23.352;2023-01-30T00:42:15;95319.16;;;-2.84;79.42
41234;BME280;26968;42.686;23.352;2023-01-30T00:44:59;95456.63;;;-2.05;79.68
41234;BME280;26968;42.686;23.352;2023-01-30T00:47:43;95411.72;;;-2.20;79.63
41234;BME280;26968;42.686;23.352;2023-01-30T00:50:09;95461.09;;;-1.99;79.67
41234;BME280;26968;42.686;23.352;2023-01-30T00:52:34;95439.31;;;-2.19;79.54
41234;BME280;26968;42.686;23.352;2023-01-30T00:54:59;95391.47;;;-2.31;80.17
41234;BME280;26968;42.686;23.352;2023-01-30T00:57:25;95318.94;;;-2.82;80.39
41234;BME280;26968;42.686;23.352;2023-01-30T00:59:50;95339.09;;;-2.63;79.99
41234;BME280;26968;42.686;23.352;2023-01-30T01:02:16;95472.59;;;-1.80;80.09
41234;BME280;26968;42.686;23.352;2023-01-30T01:04:41;95475.59;;;-1.83;79.79
41234;BME280;26968;42.686;23.352;2023-01-30T01:07:13;95343.66;;;-2.65;80.54
41234;BME280;26968;42.686;23.352;2023-01-30T01:09:38;95313.47;;;-2.94;80.43
41234;BME280;26968;42.686;23.352;2023-01-30T01:12:04;95467.78;;;-1.83;81.12
41234;BME280;26968;42.686;23.352;2023-01-30T01:14:30;95341.63;;;-2.69;80.23
41234;BME280;26968;42.686;23.352;2023-01-30T01:16:55;95389.41;;;-2.36;80.86
41234;BME280;26968;42.686;23.352;2023-01-30T01:19:21;95463.16;;;-1.88;81.17
41234;BME280;26968;42.686;23.352;2023-01-30T01:21:46;95459.22;;;-1.77;81.07
41234;BME280;26968;42.686;23.352;2023-01-30T01:24:13;95450.69;;;-1.65;80.60
41234;BME280;26968;42.686;23.352;2023-01-30T01:26:39;95394.47;;;-2.07;80.10
41234;BME280;26968;42.686;23.352;2023-01-30T01:29:06;95379.34;;;-2.24;80.14
41234;BME280;26968;42.686;23.352;2023-01-30T01:31:35;95441.59;;;-1.82;80.19
41234;BME280;26968;42.686;23.352;2023-01-30T01:34:00;95344.63;;;-2.45;80.27
41234;BME280;26968;42.686;23.352;2023-01-30T01:36:25;95334.16;;;-2.51;80.18
41234;BME280;26968;42.686;23.352;2023-01-30T01:38:51;95447.19;;;-1.85;80.74
41234;BME280;26968;42.686;23.352;2023-01-30T01:41:17;95393.13;;;-2.24;80.65
41234;BME280;26968;42.686;23.352;2023-01-30T01:44:05;95449.78;;;-1.85;80.79
41234;BME280;26968;42.686;23.352;2023-01-30T01:49:32;95450.19;;;-1.81;80.29
41234;BME280;26968;42.686;23.352;2023-01-30T01:52:07;95441.66;;;-2.03;80.12
41234;BME280;26968;42.686;23.352;2023-01-30T01:57:16;95400.19;;;-2.11;80.66
41234;BME280;26968;42.686;23.352;2023-01-30T01:59:51;95322.53;;;-2.62;79.93
41234;BME280;26968;42.686;23.352;2023-01-30T02:02:19;95428.47;;;-2.02;80.56
41234;BME280;26968;42.686;23.352;2023-01-30T02:04:48;95451.56;;;-1.85;80.47
41234;BME280;26968;42.686;23.352;2023-01-30T02:07:42;95344.78;;;-2.53;80.12
41234;BME280;26968;42.686;23.352;2023-01-30T02:10:13;95371.91;;;-2.27;80.18
41234;BME280;26968;42.686;23.352;2023-01-30T02:12:39;95374.47;;;-2.34;79.86
41234;BME280;26968;42.686;23.352;2023-01-30T02:15:06;95442.97;;;-1.86;79.91
41234;BME280;26968;42.686;23.352;2023-01-30T02:17:31;95430.63;;;-2.05;80.36
41234;BME280;26968;42.686;23.352;2023-01-30T02:20:05;95447.94;;;-1.91;80.18
41234;BME280;26968;42.686;23.352;2023-01-30T02:33:53;95441.50;;;-1.95;80.54
41234;BME280;26968;42.686;23.352;2023-01-30T02:47:33;95360.00;;;-2.43;79.85
41234;BME280;26968;42.686;23.352;2023-01-30T02:50:07;95333.75;;;-2.55;79.02
41234;BME280;26968;42.686;23.352;2023-01-30T02:52:35;95417.25;;;-2.02;79.15
41234;BME280;26968;42.686;23.352;2023-01-30T02:55:07;95435.94;;;-1.92;79.32
41234;BME280;26968;42.686;23.352;2023-01-30T02:57:32;95423.13;;;-1.93;79.84
41234;BME280;26968;42.686;23.352;2023-01-30T03:00:00;95398.56;;;-2.19;79.67
41234;BME280;26968;42.686;23.352;2023-01-30T03:10:37;95439.09;;;-1.97;79.34
41234;BME280;26968;42.686;23.352;2023-01-30T03:15:48;95430.13;;;-1.94;79.44
41234;BME280;26968;42.686;23.352;2023-01-30T03:18:16;95381.97;;;-2.18;78.81
41234;BME280;26968;42.686;23.352;2023-01-30T03:20:41;95330.63;;;-2.44;79.29
41234;BME280;26968;42.686;23.352;2023-01-30T03:23:07;95318.53;;;-2.58;79.41
41234;BME280;26968;42.686;23.352;2023-01-30T03:25:34;95353.31;;;-2.31;79.87
41234;BME280;26968;42.686;23.352;2023-01-30T03:28:02;95309.22;;;-2.52;79.63
41234;BME280;26968;42.686;23.352;2023-01-30T03:30:29;95403.34;;;-1.88;79.28
41234;BME280;26968;42.686;23.352;2023-01-30T03:32:54;95228.59;;;-3.00;79.41
41234;BME280;26968;42.686;23.352;2023-01-30T03:35:20;95405.16;;;-1.88;79.51
41234;BME280;26968;42.686;23.352;2023-01-30T03:37:46;95369.59;;;-2.16;79.33
41234;BME280;26968;42.686;23.352;2023-01-30T03:40:13;95403.53;;;-1.89;79.92
41234;BME280;26968;42.686;23.352;2023-01-30T03:42:40;95351.59;;;-2.17;79.74
41234;BME280;26968;42.686;23.352;2023-01-30T03:45:07;95398.59;;;-1.84;79.65
41234;BME280;26968;42.686;23.352;2023-01-30T03:47:32;95336.22;;;-2.12;79.41
41234;BME280;26968;42.686;23.352;2023-01-30T03:49:58;95395.59;;;-1.81;78.66
41234;BME280;26968;42.686;23.352;2023-01-30T03:52:23;95397.34;;;-1.88;78.72
41234;BME280;26968;42.686;23.352;2023-01-30T03:54:49;95334.94;;;-2.29;78.91
41234;BME280;26968;42.686;23.352;2023-01-30T03:57:14;95377.59;;;-2.17;78.90
41234;BME280;26968;42.686;23.352;2023-01-30T03:59:40;95314.72;;;-2.62;78.81
41234;BME280;26968;42.686;23.352;2023-01-30T04:02:05;95379.19;;;-2.16;79.63
41234;BME280;26968;42.686;23.352;2023-01-30T04:04:30;95358.59;;;-2.18;79.55
41234;BME280;26968;42.686;23.352;2023-01-30T04:06:56;95321.84;;;-2.43;79.46
41234;BME280;26968;42.686;23.352;2023-01-30T04:09:21;95171.03;;;-3.38;79.36
41234;BME280;26968;42.686;23.352;2023-01-30T04:11:47;95317.72;;;-2.37;79.11
41234;BME280;26968;42.686;23.352;2023-01-30T04:14:12;95359.94;;;-1.94;80.20
41234;BME280;26968;42.686;23.352;2023-01-30T04:16:39;95345.59;;;-2.18;79.46
41234;BME280;26968;42.686;23.352;2023-01-30T04:19:04;95389.56;;;-1.88;78.45
41234;BME280;26968;42.686;23.352;2023-01-30T04:21:30;95344.38;;;-2.22;79.03
41234;BME280;26968;42.686;23.352;2023-01-30T04:23:55;95362.78;;;-2.17;78.99
41234;BME280;26968;42.686;23.352;2023-01-30T04:26:20;95211.34;;;-3.14;79.10
41234;BME280;26968;42.686;23.352;2023-01-30T04:28:46;95387.66;;;-2.08;79.13
41234;BME280;26968;42.686;23.352;2023-01-30T04:31:11;95360.19;;;-2.17;79.71
41234;BME280;26968;42.686;23.352;2023-01-30T04:33:37;95392.91;;;-1.95;79.71
41234;BME280;26968;42.686;23.352;2023-01-30T04:36:05;95376.19;;;-2.13;79.43
41234;BME280;26968;42.686;23.352;2023-01-30T04:38:32;95254.03;;;-2.89;79.49
41234;BME280;26968;42.686;23.352;2023-01-30T04:40:58;95350.53;;;-2.29;79.78
41234;BME280;26968;42.686;23.352;2023-01-30T04:43:25;95352.03;;;-2.42;80.15
41234;BME280;26968;42.686;23.352;2023-01-30T04:45:51;95324.88;;;-2.39;79.89
41234;BME280;26968;42.686;23.352;2023-01-30T04:48:18;95303.81;;;-2.51;79.69
41234;BME280;26968;42.686;23.352;2023-01-30T04:50:47;95349.19;;;-2.19;80.25
41234;BME280;26968;42.686;23.352;2023-01-30T04:53:13;95327.16;;;-2.29;80.26
41234;BME280;26968;42.686;23.352;2023-01-30T04:55:39;95312.16;;;-2.27;80.36
41234;BME280;26968;42.686;23.352;2023-01-30T04:58:04;95324.84;;;-2.11;80.31
41234;BME280;26968;42.686;23.352;2023-01-30T05:00:30;95244.66;;;-2.55;79.36
41234;BME280;26968;42.686;23.352;2023-01-30T05:02:56;95286.00;;;-2.26;80.34
41234;BME280;26968;42.686;23.352;2023-01-30T05:05:22;95264.28;;;-2.53;79.92
41234;BME280;26968;42.686;23.352;2023-01-30T05:07:48;95360.13;;;-1.96;79.84
41234;BME280;26968;42.686;23.352;2023-01-30T05:10:14;95359.88;;;-2.07;80.05
41234;BME280;26968;42.686;23.352;2023-01-30T05:12:40;95324.56;;;-2.29;80.54
41234;BME280;26968;42.686;23.352;2023-01-30T05:15:06;95365.81;;;-2.13;80.49
41234;BME280;26968;42.686;23.352;2023-01-30T05:17:32;95356.34;;;-2.21;81.11
41234;BME280;26968;42.686;23.352;2023-01-30T05:19:58;95276.91;;;-2.71;81.20
41234;BME280;26968;42.686;23.352;2023-01-30T05:22:23;95374.81;;;-2.16;80.54
41234;BME280;26968;42.686;23.352;2023-01-30T05:24:49;95367.94;;;-2.23;81.15
41234;BME280;26968;42.686;23.352;2023-01-30T05:27:14;95369.41;;;-2.14;81.15
41234;BME280;26968;42.686;23.352;2023-01-30T05:29:40;95241.97;;;-2.96;81.84
41234;BME280;26968;42.686;23.352;2023-01-30T05:32:05;95373.38;;;-2.18;81.55
41234;BME280;26968;42.686;23.352;2023-01-30T05:34:31;95371.66;;;-2.05;82.06
41234;BME280;26968;42.686;23.352;2023-01-30T05:36:56;95339.53;;;-2.31;81.69
41234;BME280;26968;42.686;23.352;2023-01-30T05:39:22;95299.66;;;-2.73;81.76
41234;BME280;26968;42.686;23.352;2023-01-30T05:41:48;95227.13;;;-3.09;82.09
41234;BME280;26968;42.686;23.352;2023-01-30T05:44:14;95316.34;;;-2.61;82.61
41234;BME280;26968;42.686;23.352;2023-01-30T05:46:39;95273.75;;;-2.94;81.65
41234;BME280;26968;42.686;23.352;2023-01-30T05:49:05;95289.13;;;-2.93;82.46
41234;BME280;26968;42.686;23.352;2023-01-30T05:51:32;95285.38;;;-2.90;83.05
41234;BME280;26968;42.686;23.352;2023-01-30T05:53:57;95263.88;;;-3.05;83.58
41234;BME280;26968;42.686;23.352;2023-01-30T05:56:23;95372.56;;;-2.19;83.84
41234;BME280;26968;42.686;23.352;2023-01-30T05:58:50;95361.78;;;-2.22;83.04
41234;BME280;26968;42.686;23.352;2023-01-30T06:01:15;95306.75;;;-2.60;82.29
41234;BME280;26968;42.686;23.352;2023-01-30T06:03:41;95308.78;;;-2.56;82.68
41234;BME280;26968;42.686;23.352;2023-01-30T06:06:07;95300.78;;;-2.82;82.19
41234;BME280;26968;42.686;23.352;2023-01-30T06:08:33;95358.31;;;-2.29;82.73
41234;BME280;26968;42.686;23.352;2023-01-30T06:11:02;95390.00;;;-2.13;83.28
41234;BME280;26968;42.686;23.352;2023-01-30T06:13:28;95265.34;;;-2.96;82.73
41234;BME280;26968;42.686;23.352;2023-01-30T06:15:53;95308.78;;;-2.56;83.11
41234;BME280;26968;42.686;23.352;2023-01-30T06:18:19;95329.13;;;-2.31;82.71
41234;BME280;26968;42.686;23.352;2023-01-30T06:20:48;95322.66;;;-2.42;82.50
41234;BME280;26968;42.686;23.352;2023-01-30T06:23:14;95353.00;;;-2.21;82.94
41234;BME280;26968;42.686;23.352;2023-01-30T06:25:44;95377.75;;;-2.19;82.23
41234;BME280;26968;42.686;23.352;2023-01-30T06:28:09;95371.91;;;-2.27;82.57
41234;BME280;26968;42.686;23.352;2023-01-30T06:30:35;95304.75;;;-2.58;83.00
41234;BME280;26968;42.686;23.352;2023-01-30T06:33:00;95285.84;;;-2.80;83.28
41234;BME280;26968;42.686;23.352;2023-01-30T06:35:25;95366.75;;;-2.21;83.16
41234;BME280;26968;42.686;23.352;2023-01-30T06:37:51;95230.94;;;-3.05;82.93
41234;BME280;26968;42.686;23.352;2023-01-30T06:40:16;95357.13;;;-2.27;83.30
41234;BME280;26968;42.686;23.352;2023-01-30T06:42:44;95331.22;;;-2.48;82.78
41234;BME280;26968;42.686;23.352;2023-01-30T06:45:09;95333.41;;;-2.52;82.72
41234;BME280;26968;42.686;23.352;2023-01-30T06:47:52;95362.00;;;-2.45;82.84
41234;BME280;26968;42.686;23.352;2023-01-30T06:50:20;95311.44;;;-2.77;83.08
41234;BME280;26968;42.686;23.352;2023-01-30T06:52:48;95344.19;;;-2.48;83.31
41234;BME280;26968;42.686;23.352;2023-01-30T06:55:15;95387.22;;;-2.11;83.39
41234;BME280;26968;42.686;23.352;2023-01-30T06:57:42;95392.22;;;-2.10;83.16
41234;BME280;26968;42.686;23.352;2023-01-30T07:00:10;95301.50;;;-2.67;82.34
41234;BME280;26968;42.686;23.352;2023-01-30T07:02:36;95282.44;;;-2.81;82.53
41234;BME280;26968;42.686;23.352;2023-01-30T07:05:03;95386.81;;;-2.15;82.32
41234;BME280;26968;42.686;23.352;2023-01-30T07:07:30;95362.06;;;-2.39;82.80
41234;BME280;26968;42.686;23.352;2023-01-30T07:09:58;95383.66;;;-2.04;82.98
41234;BME280;26968;42.686;23.352;2023-01-30T07:12:25;95279.69;;;-2.73;82.10
41234;BME280;26968;42.686;23.352;2023-01-30T07:14:51;95391.84;;;-2.07;81.92
41234;BME280;26968;42.686;23.352;2023-01-30T07:17:18;95391.47;;;-2.04;81.14
41234;BME280;26968;42.686;23.352;2023-01-30T07:19:43;95298.06;;;-2.74;81.81
41234;BME280;26968;42.686;23.352;2023-01-30T07:22:09;95307.97;;;-2.56;82.14
41234;BME280;26968;42.686;23.352;2023-01-30T07:24:34;95342.97;;;-2.24;81.67
41234;BME280;26968;42.686;23.352;2023-01-30T07:27:00;95345.59;;;-2.18;81.52
41234;BME280;26968;42.686;23.352;2023-01-30T07:29:25;95399.50;;;-1.99;81.19
41234;BME280;26968;42.686;23.352;2023-01-30T07:31:50;95395.03;;;-2.05;80.94
41234;BME280;26968;42.686;23.352;2023-01-30T07:34:16;95402.94;;;-1.91;81.68
41234;BME280;26968;42.686;23.352;2023-01-30T07:36:42;95272.81;;;-2.87;80.73
41234;BME280;26968;42.686;23.352;2023-01-30T07:39:07;95330.50;;;-2.36;80.88
41234;BME280;26968;42.686;23.352;2023-01-30T07:41:34;95416.75;;;-1.91;80.25
41234;BME280;26968;42.686;23.352;2023-01-30T07:44:00;95301.34;;;-2.59;81.34
41234;BME280;26968;42.686;23.352;2023-01-30T07:46:25;95350.78;;;-2.18;80.69
41234;BME280;26968;42.686;23.352;2023-01-30T07:48:51;95416.84;;;-1.71;80.50
41234;BME280;26968;42.686;23.352;2023-01-30T07:51:18;95362.34;;;-1.92;80.66
41234;BME280;26968;42.686;23.352;2023-01-30T07:53:43;95341.16;;;-1.89;79.93
41234;BME280;26968;42.686;23.352;2023-01-30T07:56:09;95274.94;;;-2.35;79.70
41234;BME280;26968;42.686;23.352;2023-01-30T07:58:38;95366.94;;;-1.95;79.28
41234;BME280;26968;42.686;23.352;2023-01-30T08:01:03;95286.81;;;-2.60;79.24
41234;BME280;26968;42.686;23.352;2023-01-30T08:03:29;95305.47;;;-2.43;79.72
41234;BME280;26968;42.686;23.352;2023-01-30T08:05:54;95286.66;;;-2.52;80.41
41234;BME280;26968;42.686;23.352;2023-01-30T08:08:20;95267.81;;;-2.60;79.94
41234;BME280;26968;42.686;23.352;2023-01-30T08:10:47;95302.97;;;-2.30;80.76
41234;BME280;26968;42.686;23.352;2023-01-30T08:13:13;95371.22;;;-1.74;80.74
41234;BME280;26968;42.686;23.352;2023-01-30T08:15:39;95286.81;;;-2.25;81.57
41234;BME280;26968;42.686;23.352;2023-01-30T08:18:05;95298.47;;;-2.15;80.33
41234;BME280;26968;42.686;23.352;2023-01-30T08:20:33;95208.44;;;-2.70;79.62
41234;BME280;26968;42.686;23.352;2023-01-30T08:22:59;95313.59;;;-2.25;79.50
41234;BME280;26968;42.686;23.352;2023-01-30T08:25:26;95268.47;;;-2.52;79.58
41234;BME280;26968;42.686;23.352;2023-01-30T08:27:51;95316.44;;;-2.13;79.22
41234;BME280;26968;42.686;23.352;2023-01-30T08:30:18;95275.75;;;-2.34;79.35
41234;BME280;26968;42.686;23.352;2023-01-30T08:32:43;95371.03;;;-1.79;79.98
41234;BME280;26968;42.686;23.352;2023-01-30T08:35:09;95363.09;;;-1.64;80.43
41234;BME280;26968;42.686;23.352;2023-01-30T08:37:35;95359.31;;;-1.62;79.24
41234;BME280;26968;42.686;23.352;2023-01-30T08:40:00;95334.84;;;-1.74;79.33
41234;BME280;26968;42.686;23.352;2023-01-30T08:42:26;95324.25;;;-1.72;78.86
41234;BME280;26968;42.686;23.352;2023-01-30T08:44:51;95310.59;;;-1.81;79.50
41234;BME280;26968;42.686;23.352;2023-01-30T08:47:17;95315.84;;;-1.68;78.75
41234;BME280;26968;42.686;23.352;2023-01-30T08:49:42;95254.72;;;-2.05;78.48
41234;BME280;26968;42.686;23.352;2023-01-30T08:52:08;95312.66;;;-1.76;78.31
41234;BME280;26968;42.686;23.352;2023-01-30T08:54:34;95333.50;;;-1.57;78.34
41234;BME280;26968;42.686;23.352;2023-01-30T08:57:00;95175.19;;;-2.53;77.95
41234;BME280;26968;42.686;23.352;2023-01-30T08:59:25;95279.16;;;-1.99;78.31
41234;BME280;26968;42.686;23.352;2023-01-30T09:01:50;95293.84;;;-1.72;77.58
41234;BME280;26968;42.686;23.352;2023-01-30T09:04:16;95235.13;;;-2.14;78.55
41234;BME280;26968;42.686;23.352;2023-01-30T09:06:41;95310.09;;;-1.63;78.08
41234;BME280;26968;42.686;23.352;2023-01-30T09:09:07;95316.13;;;-1.49;77.92
41234;BME280;26968;42.686;23.352;2023-01-30T09:11:32;95331.38;;;-1.40;78.06
41234;BME280;26968;42.686;23.352;2023-01-30T09:13:57;95285.81;;;-1.83;77.34
41234;BME280;26968;42.686;23.352;2023-01-30T09:16:23;95254.94;;;-2.06;76.91
41234;BME280;26968;42.686;23.352;2023-01-30T09:18:48;95328.75;;;-1.46;76.72
41234;BME280;26968;42.686;23.352;2023-01-30T09:21:15;95328.69;;;-1.60;76.82
41234;BME280;26968;42.686;23.352;2023-01-30T09:23:40;95326.31;;;-1.54;77.18
41234;BME280;26968;42.686;23.352;2023-01-30T09:26:06;95242.69;;;-2.12;77.79
41234;BME280;26968;42.686;23.352;2023-01-30T09:28:34;95295.81;;;-1.80;77.64
41234;BME280;26968;42.686;23.352;2023-01-30T09:31:00;95338.69;;;-1.63;77.53
41234;BME280;26968;42.686;23.352;2023-01-30T09:33:26;95330.91;;;-1.57;77.85
41234;BME280;26968;42.686;23.352;2023-01-30T09:35:52;95241.28;;;-2.15;78.14
41234;BME280;26968;42.686;23.352;2023-01-30T09:38:18;95243.91;;;-2.15;77.42
41234;BME280;26968;42.686;23.352;2023-01-30T09:54:36;95249.91;;;-2.08;78.28
41234;BME280;26968;42.686;23.352;2023-01-30T09:59:51;95264.97;;;-1.90;78.13
41234;BME280;26968;42.686;23.352;2023-01-30T10:05:46;95291.88;;;-1.63;78.86
41234;BME280;26968;42.686;23.352;2023-01-30T10:14:15;95231.59;;;-1.93;78.31
41234;BME280;26968;42.686;23.352;2023-01-30T10:22:26;95261.41;;;-1.82;77.33
41234;BME280;26968;42.686;23.352;2023-01-30T10:25:31;95276.59;;;-1.86;77.33
41234;BME280;26968;42.686;23.352;2023-01-30T10:30:29;95148.63;;;-2.49;77.30
41234;BME280;26968;42.686;23.352;2023-01-30T10:33:00;95176.09;;;-2.26;76.49
41234;BME280;26968;42.686;23.352;2023-01-30T10:35:31;95244.63;;;-1.73;76.50
41234;BME280;26968;42.686;23.352;2023-01-30T10:40:57;95226.59;;;-1.81;75.34
41234;BME280;26968;42.686;23.352;2023-01-30T10:43:36;95093.25;;;-2.62;75.49
41234;BME280;26968;42.686;23.352;2023-01-30T10:51:36;95110.13;;;-2.39;76.24
41234;BME280;26968;42.686;23.352;2023-01-30T10:54:12;95199.00;;;-1.82;75.35
41234;BME280;26968;42.686;23.352;2023-01-30T11:02:25;95187.06;;;-1.64;74.62
41234;BME280;26968;42.686;23.352;2023-01-30T11:04:59;95177.84;;;-1.60;74.67
41234;BME280;26968;42.686;23.352;2023-01-30T11:07:30;95173.47;;;-1.52;74.93
41234;BME280;26968;42.686;23.352;2023-01-30T11:09:57;95161.44;;;-1.60;74.96
41234;BME280;26968;42.686;23.352;2023-01-30T11:12:23;95029.38;;;-2.50;74.52
41234;BME280;26968;42.686;23.352;2023-01-30T11:15:01;95108.38;;;-2.05;75.25
41234;BME280;26968;42.686;23.352;2023-01-30T11:17:46;95110.59;;;-2.02;74.80
41234;BME280;26968;42.686;23.352;2023-01-30T11:20:21;95103.63;;;-1.95;75.84
41234;BME280;26968;42.686;23.352;2023-01-30T11:23:05;95136.66;;;-1.56;75.40
41234;BME280;26968;42.686;23.352;2023-01-30T11:25:45;95037.22;;;-2.17;74.99
41234;BME280;26968;42.686;23.352;2023-01-30T11:28:13;95055.66;;;-1.92;75.16
41234;BME280;26968;42.686;23.352;2023-01-30T11:30:40;95103.03;;;-1.51;75.47
41234;BME280;26968;42.686;23.352;2023-01-30T11:33:14;95049.66;;;-1.80;73.68
41234;BME280;26968;42.686;23.352;2023-01-30T11:35:56;95113.47;;;-1.38;74.21
41234;BME280;26968;42.686;23.352;2023-01-30T11:38:28;95096.25;;;-1.59;74.25
41234;BME280;26968;42.686;23.352;2023-01-30T11:41:19;95106.66;;;-1.39;74.36
41234;BME280;26968;42.686;23.352;2023-01-30T11:43:45;95005.06;;;-2.03;74.37
41234;BME280;26968;42.686;23.352;2023-01-30T11:46:21;94980.06;;;-2.04;74.68
41234;BME280;26968;42.686;23.352;2023-01-30T11:48:48;95059.25;;;-1.47;74.41
41234;BME280;26968;42.686;23.352;2023-01-30T11:51:18;94955.69;;;-2.10;74.32
41234;BME280;26968;42.686;23.352;2023-01-30T11:53:56;95015.66;;;-1.72;74.20
41234;BME280;26968;42.686;23.352;2023-01-30T11:56:29;94990.84;;;-1.87;74.49
41234;BME280;26968;42.686;23.352;2023-01-30T11:58:59;95003.63;;;-1.66;74.25
41234;BME280;26968;42.686;23.352;2023-01-30T12:01:35;95029.22;;;-1.43;73.97
41234;BME280;26968;42.686;23.352;2023-01-30T12:04:05;95028.19;;;-1.36;73.41
41234;BME280;26968;42.686;23.352;2023-01-30T12:06:35;94926.84;;;-1.82;73.80
41234;BME280;26968;42.686;23.352;2023-01-30T12:09:03;94940.63;;;-1.62;74.17
41234;BME280;26968;42.686;23.352;2023-01-30T12:11:39;95044.34;;;-1.01;72.86
41234;BME280;26968;42.686;23.352;2023-01-30T12:14:43;94944.81;;;-1.54;72.77
41234;BME280;26968;42.686;23.352;2023-01-30T12:17:15;94887.31;;;-1.97;73.34
41234;BME280;26968;42.686;23.352;2023-01-30T12:22:21;95023.28;;;-0.93;72.49
41234;BME280;26968;42.686;23.352;2023-01-30T12:24:58;94967.13;;;-1.27;72.42
41234;BME280;26968;42.686;23.352;2023-01-30T12:30:22;95002.75;;;-1.21;72.45
41234;BME280;26968;42.686;23.352;2023-01-30T12:32:50;94967.22;;;-1.53;72.34
41234;BME280;26968;42.686;23.352;2023-01-30T12:35:17;94818.66;;;-2.54;72.32
41234;BME280;26968;42.686;23.352;2023-01-30T12:40:44;94991.88;;;-1.04;72.74
41234;BME280;26968;42.686;23.352;2023-01-30T12:46:23;94980.94;;;-0.75;72.14
41234;BME280;26968;42.686;23.352;2023-01-30T12:54:49;94961.97;;;-0.89;71.52
41234;BME280;26968;42.686;23.352;2023-01-30T12:57:31;94971.16;;;-0.80;72.35
41234;BME280;26968;42.686;23.352;2023-01-30T13:02:47;94898.81;;;-1.09;71.94
41234;BME280;26968;42.686;23.352;2023-01-30T13:05:53;94973.47;;;-0.65;70.81
41234;BME280;26968;42.686;23.352;2023-01-30T13:08:17;94969.44;;;-0.61;71.16
41234;BME280;26968;42.686;23.352;2023-01-30T13:11:21;94730.09;;;-2.26;70.52
41234;BME280;26968;42.686;23.352;2023-01-30T13:20:01;94934.53;;;-0.85;71.71
41234;BME280;26968;42.686;23.352;2023-01-30T13:22:28;94964.09;;;-0.72;71.12
41234;BME280;26968;42.686;23.352;2023-01-30T13:25:05;94870.28;;;-1.22;71.75
41234;BME280;26968;42.686;23.352;2023-01-30T13:27:39;94834.41;;;-1.58;70.63
41234;BME280;26968;42.686;23.352;2023-01-30T13:30:13;94939.03;;;-1.05;70.51
41234;BME280;26968;42.686;23.352;2023-01-30T13:32:45;94861.75;;;-1.42;70.63
41234;BME280;26968;42.686;23.352;2023-01-30T13:35:18;94932.75;;;-0.91;71.58
41234;BME280;26968;42.686;23.352;2023-01-30T13:37:47;94932.38;;;-0.94;71.98
41234;BME280;26968;42.686;23.352;2023-01-30T13:40:22;94869.56;;;-1.49;71.78
41234;BME280;26968;42.686;23.352;2023-01-30T13:42:53;94849.78;;;-1.57;72.19
41234;BME280;26968;42.686;23.352;2023-01-30T13:45:26;94837.44;;;-1.61;70.48
41234;BME280;26968;42.686;23.352;2023-01-30T13:56:56;94856.16;;;-1.46;72.44
41234;BME280;26968;42.686;23.352;2023-01-30T14:09:34;94924.13;;;-0.91;71.00
41234;BME280;26968;42.686;23.352;2023-01-30T14:12:02;94849.69;;;-1.37;71.37
41234;BME280;26968;42.686;23.352;2023-01-30T14:14:30;94931.91;;;-0.78;70.58
41234;BME280;26968;42.686;23.352;2023-01-30T14:17:15;94946.44;;;-0.64;70.18
41234;BME280;26968;42.686;23.352;2023-01-30T14:22:20;94929.66;;;-0.74;70.50
41234;BME280;26968;42.686;23.352;2023-01-30T14:32:55;94930.38;;;-0.99;71.14
41234;BME280;26968;42.686;23.352;2023-01-30T14:35:28;94926.22;;;-1.06;70.90
41234;BME280;26968;42.686;23.352;2023-01-30T14:38:15;94937.22;;;-1.04;71.44
41234;BME280;26968;42.686;23.352;2023-01-30T14:40:43;94810.88;;;-1.83;72.29
41234;BME280;26968;42.686;23.352;2023-01-30T14:45:50;94921.88;;;-1.19;71.71
41234;BME280;26968;42.686;23.352;2023-01-30T14:48:37;94904.25;;;-1.17;71.83
41234;BME280;26968;42.686;23.352;2023-01-30T14:51:22;94900.84;;;-1.18;71.35
41234;BME280;26968;42.686;23.352;2023-01-30T14:53:53;94901.22;;;-1.14;71.68
41234;BME280;26968;42.686;23.352;2023-01-30T14:56:50;94901.47;;;-1.15;71.63
41234;BME280;26968;42.686;23.352;2023-01-30T14:59:25;94760.63;;;-2.08;72.12
41234;BME280;26968;42.686;23.352;2023-01-30T15:05:10;94780.78;;;-2.04;72.33
41234;BME280;26968;42.686;23.352;2023-01-30T15:09:52;94897.31;;;-1.30;72.62
41234;BME280;26968;42.686;23.352;2023-01-30T15:15:17;94900.94;;;-1.44;72.11
41234;BME280;26968;42.686;23.352;2023-01-30T15:24:20;94898.03;;;-1.61;73.06
41234;BME280;26968;42.686;23.352;2023-01-30T15:27:04;94832.00;;;-2.17;72.76
41234;BME280;26968;42.686;23.352;2023-01-30T15:32:22;94901.66;;;-1.81;73.82
41234;BME280;26968;42.686;23.352;2023-01-30T15:34:50;94901.88;;;-1.89;72.62
41234;BME280;26968;42.686;23.352;2023-01-30T15:37:49;94726.25;;;-3.07;73.38
41234;BME280;26968;42.686;23.352;2023-01-30T15:43:02;94782.31;;;-2.60;73.40
41234;BME280;26968;42.686;23.352;2023-01-30T15:50:59;94885.94;;;-2.06;73.97